createdAt,value
2023-04-28T00:01:48.235Z,20.21
2023-04-28T00:04:15.841Z,20.34
2023-04-28T00:06:43.639Z,20.27
2023-04-28T00:09:11.476Z,20.38
2023-04-28T00:11:39.010Z,20.49
2023-04-28T00:14:06.402Z,20.40
2023-04-28T00:16:34.007Z,20.35
2023-04-28T00:19:01.017Z,20.29
2023-04-28T00:21:28.803Z,20.63
2023-04-28T00:23:56.182Z,20.29
2023-04-28T00:26:23.745Z,20.58
2023-04-28T00:28:51.331Z,20.26
2023-04-28T00:31:18.822Z,20.23
2023-04-28T00:33:45.778Z,20.31
2023-04-28T00:36:12.973Z,21.33
2023-04-28T00:38:39.952Z,21.48
2023-04-28T00:41:09.462Z,21.20
2023-04-28T00:43:47.446Z,21.85
2023-04-28T00:46:33.821Z,22.20
2023-04-28T00:49:00.905Z,21.31
2023-04-28T00:51:29.195Z,20.64
2023-04-28T00:53:57.609Z,20.46
2023-04-28T00:56:27.554Z,20.34
2023-04-28T00:58:54.643Z,20.47
2023-04-28T01:01:21.839Z,20.34
2023-04-28T01:03:49.669Z,20.40
2023-04-28T01:06:18.712Z,20.48
2023-04-28T01:08:49.294Z,20.34
2023-04-28T01:11:17.685Z,20.63
2023-04-28T01:14:00.355Z,20.42
2023-04-28T01:16:30.196Z,20.36
2023-04-28T01:19:00.351Z,20.54
2023-04-28T01:21:30.286Z,20.61
2023-04-28T01:23:58.917Z,20.55
2023-04-28T01:26:26.397Z,20.01
2023-04-28T01:28:53.790Z,20.26
2023-04-28T01:31:21.712Z,20.00
2023-04-28T01:33:48.736Z,20.47
2023-04-28T01:36:17.412Z,20.22
2023-04-28T01:38:44.347Z,20.13
2023-04-28T01:41:13.662Z,19.96
2023-04-28T01:43:40.810Z,20.51
2023-04-28T01:46:07.816Z,19.75
2023-04-28T01:48:35.353Z,19.45
2023-04-28T01:51:02.588Z,19.62
2023-04-28T01:53:31.318Z,19.79
2023-04-28T01:55:59.061Z,19.62
2023-04-28T01:58:27.022Z,20.03
2023-04-28T02:00:54.029Z,20.03
2023-04-28T02:03:22.883Z,19.99
2023-04-28T02:05:50.406Z,19.67
2023-04-28T02:08:17.873Z,19.75
2023-04-28T02:10:45.456Z,20.07
2023-04-28T02:13:12.413Z,20.06
2023-04-28T02:15:43.052Z,20.24
2023-04-28T02:18:13.132Z,20.26
2023-04-28T02:20:41.009Z,19.89
2023-04-28T02:23:09.480Z,19.96
2023-04-28T02:25:37.137Z,19.72
2023-04-28T02:28:04.324Z,20.04
2023-04-28T02:30:35.447Z,20.05
2023-04-28T02:33:02.497Z,19.42
2023-04-28T02:35:30.151Z,19.87
2023-04-28T02:37:57.729Z,19.98
2023-04-28T02:40:24.689Z,19.95
2023-04-28T02:42:52.022Z,20.28
2023-04-28T02:45:19.443Z,19.79
2023-04-28T02:47:46.880Z,20.01
2023-04-28T02:50:13.869Z,19.69
2023-04-28T02:52:40.937Z,19.69
2023-04-28T02:55:08.530Z,19.80
2023-04-28T02:57:36.250Z,19.58
2023-04-28T03:00:05.673Z,19.85
2023-04-28T03:02:41.536Z,19.71
2023-04-28T03:05:09.397Z,19.92
2023-04-28T03:07:37.133Z,19.72
2023-04-28T03:10:04.711Z,19.73
2023-04-28T03:12:31.911Z,19.73
2023-04-28T03:14:58.938Z,19.41
2023-04-28T03:17:26.374Z,19.52
2023-04-28T03:19:53.934Z,19.60
2023-04-28T03:22:21.510Z,19.87
2023-04-28T03:24:49.605Z,20.01
2023-04-28T03:27:16.746Z,19.83
2023-04-28T03:29:44.199Z,19.94
2023-04-28T03:32:12.225Z,19.50
2023-04-28T03:34:39.773Z,19.79
2023-04-28T03:37:07.342Z,19.65
2023-04-28T03:39:35.108Z,19.52
2023-04-28T03:42:02.606Z,19.97
2023-04-28T03:45:05.937Z,19.91
2023-04-28T03:47:33.631Z,19.94
2023-04-28T03:50:01.082Z,19.85
2023-04-28T03:52:28.493Z,19.93
2023-04-28T03:54:56.189Z,19.95
2023-04-28T03:57:23.482Z,19.87
2023-04-28T03:59:52.098Z,19.72
2023-04-28T04:02:19.099Z,19.85
2023-04-28T04:04:46.719Z,19.61
2023-04-28T04:07:13.971Z,19.63
2023-04-28T04:09:41.731Z,19.70
2023-04-28T04:12:10.352Z,19.97
2023-04-28T04:14:40.266Z,19.62
2023-04-28T04:17:07.786Z,19.73
2023-04-28T04:19:35.260Z,19.65
2023-04-28T04:22:02.968Z,19.89
2023-04-28T04:24:30.792Z,19.98
2023-04-28T04:26:58.407Z,19.69
2023-04-28T04:29:33.566Z,19.69
2023-04-28T04:32:07.843Z,19.60
2023-04-28T04:34:35.448Z,19.70
2023-04-28T04:37:02.976Z,19.54
2023-04-28T04:39:30.500Z,19.66
2023-04-28T04:41:57.970Z,19.96
2023-04-28T04:44:44.634Z,19.60
2023-04-28T04:47:20.731Z,19.78
2023-04-28T04:49:50.342Z,20.00
2023-04-28T04:52:17.621Z,19.79
2023-04-28T04:54:46.344Z,19.74
2023-04-28T04:57:15.919Z,19.79
2023-04-28T05:00:07.800Z,20.00
2023-04-28T05:02:35.685Z,19.84
2023-04-28T05:05:19.786Z,20.08
2023-04-28T05:07:56.270Z,20.02
2023-04-28T05:10:24.837Z,19.93
2023-04-28T05:12:52.274Z,19.94
2023-04-28T05:15:19.725Z,19.92
2023-04-28T05:18:11.043Z,19.93
2023-04-28T05:20:38.358Z,19.94
2023-04-28T05:23:07.052Z,19.79
2023-04-28T05:25:34.488Z,19.77
2023-04-28T05:28:07.377Z,19.99
2023-04-28T05:30:34.986Z,19.56
2023-04-28T05:33:02.372Z,19.89
2023-04-28T05:35:31.584Z,19.78
2023-04-28T05:37:59.621Z,19.80
2023-04-28T05:40:27.659Z,19.46
2023-04-28T05:42:56.412Z,19.82
2023-04-28T05:45:23.848Z,19.62
2023-04-28T05:47:51.056Z,19.06
2023-04-28T05:50:19.730Z,19.22
2023-04-28T05:52:47.440Z,19.31
2023-04-28T05:55:15.023Z,19.42
2023-04-28T05:57:52.419Z,19.78
2023-04-28T06:00:22.068Z,19.14
2023-04-28T06:02:50.392Z,19.10
2023-04-28T06:05:18.327Z,19.65
2023-04-28T06:07:49.721Z,19.72
2023-04-28T06:10:18.965Z,19.85
2023-04-28T06:12:46.651Z,19.68
2023-04-28T06:15:13.834Z,19.67
2023-04-28T06:17:41.520Z,19.60
2023-04-28T06:20:11.245Z,19.61
2023-04-28T06:22:38.985Z,19.28
2023-04-28T06:25:07.778Z,19.90
2023-04-28T06:27:40.694Z,19.16
2023-04-28T06:30:08.541Z,18.78
2023-04-28T06:35:26.198Z,19.55
2023-04-28T06:37:55.112Z,19.75
2023-04-28T06:40:22.655Z,19.37
2023-04-28T06:42:56.360Z,18.83
2023-04-28T06:45:38.084Z,19.31
2023-04-28T06:48:06.739Z,19.99
2023-04-28T06:50:36.975Z,19.19
2023-04-28T06:53:07.886Z,19.78
2023-04-28T06:55:35.819Z,19.30
2023-04-28T06:58:03.374Z,19.86
2023-04-28T07:00:30.970Z,19.67
2023-04-28T07:02:58.701Z,19.45
2023-04-28T07:05:26.531Z,20.01
2023-04-28T07:07:54.136Z,20.02
2023-04-28T07:10:21.581Z,19.87
2023-04-28T07:12:52.502Z,19.77
2023-04-28T07:15:19.584Z,19.65
2023-04-28T07:17:46.986Z,19.77
2023-04-28T07:20:16.855Z,19.82
2023-04-28T07:22:44.349Z,19.79
2023-04-28T07:25:11.913Z,19.93
2023-04-28T07:27:39.683Z,19.66
2023-04-28T07:30:19.283Z,19.66
2023-04-28T07:32:53.837Z,19.39
2023-04-28T07:35:21.383Z,19.52
2023-04-28T07:37:48.798Z,19.68
2023-04-28T07:40:16.940Z,19.80
2023-04-28T07:42:44.386Z,19.21
2023-04-28T07:45:12.264Z,19.44
2023-04-28T07:47:39.914Z,19.66
2023-04-28T07:50:08.123Z,19.69
2023-04-28T07:52:36.201Z,19.61
2023-04-28T07:55:04.276Z,19.12
2023-04-28T07:57:31.701Z,19.13
2023-04-28T07:59:59.129Z,19.21
2023-04-28T08:02:27.419Z,18.81
2023-04-28T08:04:55.573Z,19.21
2023-04-28T08:07:24.612Z,19.19
2023-04-28T08:09:53.720Z,18.72
2023-04-28T08:12:22.026Z,19.11
2023-04-28T08:14:49.416Z,19.18
2023-04-28T08:17:17.612Z,19.55
2023-04-28T08:19:46.541Z,19.84
2023-04-28T08:22:13.984Z,19.55
2023-04-28T08:24:41.684Z,19.82
2023-04-28T08:27:09.310Z,20.07
2023-04-28T08:29:36.870Z,20.14
2023-04-28T08:32:06.489Z,20.23
2023-04-28T08:34:34.123Z,20.28
2023-04-28T08:37:01.925Z,20.24
2023-04-28T08:39:30.797Z,20.13
2023-04-28T08:41:58.476Z,20.21
2023-04-28T08:44:26.325Z,20.46
2023-04-28T08:46:58.077Z,20.57
2023-04-28T08:49:35.337Z,20.62
2023-04-28T08:52:02.856Z,20.44
2023-04-28T08:54:38.397Z,20.68
2023-04-28T08:57:07.281Z,19.78
2023-04-28T08:59:35.355Z,20.04
2023-04-28T09:02:02.830Z,18.67
2023-04-28T09:04:30.527Z,20.02
2023-04-28T09:06:58.087Z,20.22
2023-04-28T09:09:33.324Z,19.78
2023-04-28T09:12:03.874Z,22.72
2023-04-28T09:14:34.401Z,22.45
2023-04-28T09:17:02.695Z,21.72
2023-04-28T09:19:37.973Z,22.04
2023-04-28T09:22:21.678Z,21.68
2023-04-28T09:24:55.586Z,20.49
2023-04-28T09:27:29.243Z,21.30
2023-04-28T09:29:56.862Z,21.41
2023-04-28T09:32:25.895Z,21.31
2023-04-28T09:34:56.573Z,21.28
2023-04-28T09:37:30.696Z,21.51
2023-04-28T09:40:04.225Z,20.39
2023-04-28T09:42:38.501Z,19.63
2023-04-28T09:45:07.767Z,20.55
2023-04-28T09:47:38.652Z,21.11
2023-04-28T09:50:09.595Z,21.17
2023-04-28T09:52:37.462Z,20.91
2023-04-28T09:55:08.641Z,20.54
2023-04-28T09:57:36.883Z,20.26
2023-04-28T10:00:07.001Z,20.89
2023-04-28T10:05:11.015Z,20.51
2023-04-28T10:07:39.534Z,21.32
2023-04-28T10:10:08.711Z,21.31
2023-04-28T10:12:39.401Z,21.40
2023-04-28T10:15:09.901Z,21.42
2023-04-28T10:17:38.402Z,21.59
2023-04-28T10:20:06.608Z,20.40
2023-04-28T10:23:01.123Z,20.53
2023-04-28T10:25:34.251Z,20.40
2023-04-28T10:28:05.073Z,20.98
2023-04-28T10:30:32.946Z,21.13
2023-04-28T10:33:11.968Z,22.25
2023-04-28T10:35:47.725Z,20.71
2023-04-28T10:38:17.206Z,21.03
2023-04-28T10:40:52.304Z,20.98
2023-04-28T10:43:32.041Z,21.04
2023-04-28T10:46:02.553Z,22.09
2023-04-28T10:48:30.857Z,22.58
2023-04-28T10:51:21.088Z,22.86
2023-04-28T10:53:49.596Z,21.99
2023-04-28T10:56:26.013Z,22.24
2023-04-28T10:59:25.222Z,22.44
2023-04-28T11:01:52.740Z,22.29
2023-04-28T11:04:20.344Z,22.00
2023-04-28T11:07:11.552Z,22.45
2023-04-28T11:09:39.521Z,21.45
2023-04-28T11:12:10.634Z,21.71
2023-04-28T11:14:40.862Z,21.53
2023-04-28T11:17:11.466Z,21.97
2023-04-28T11:19:41.756Z,22.30
2023-04-28T11:22:20.215Z,22.19
2023-04-28T11:25:03.806Z,22.21
2023-04-28T11:27:33.274Z,22.19
2023-04-28T11:30:01.997Z,21.70
2023-04-28T11:32:32.332Z,21.84
2023-04-28T11:35:00.337Z,21.61
2023-04-28T11:37:27.841Z,22.53
2023-04-28T11:39:55.386Z,21.95
2023-04-28T11:42:22.988Z,22.47
2023-04-28T11:44:52.969Z,22.01
2023-04-28T11:47:34.378Z,22.12
2023-04-28T11:50:03.261Z,22.11
2023-04-28T11:52:30.622Z,21.80
2023-04-28T11:55:00.865Z,21.93
2023-04-28T11:57:28.324Z,22.66
2023-04-28T12:00:21.838Z,22.88
2023-04-28T12:02:49.379Z,22.78
2023-04-28T12:05:16.970Z,22.68
2023-04-28T12:07:45.600Z,21.99
2023-04-28T12:10:19.831Z,22.81
2023-04-28T12:12:52.792Z,22.09
2023-04-28T12:15:22.375Z,22.01
2023-04-28T12:17:51.114Z,21.98
2023-04-28T12:20:37.194Z,22.65
2023-04-28T12:23:05.411Z,22.16
2023-04-28T12:25:35.110Z,22.09
2023-04-28T12:28:05.053Z,25.85
2023-04-28T12:30:41.644Z,24.83
2023-04-28T12:33:29.755Z,25.53
2023-04-28T12:35:58.415Z,24.78
2023-04-28T12:38:26.670Z,25.15
2023-04-28T12:40:54.067Z,24.91
2023-04-28T12:43:24.070Z,25.15
2023-04-28T12:45:53.550Z,24.63
2023-04-28T12:48:21.597Z,23.61
2023-04-28T12:50:49.676Z,23.13
2023-04-28T12:53:17.139Z,22.16
2023-04-28T12:55:44.676Z,21.90
2023-04-28T12:58:11.711Z,21.58
2023-04-28T13:00:39.298Z,21.95
2023-04-28T13:03:06.966Z,21.85
2023-04-28T13:05:35.209Z,20.87
2023-04-28T13:08:02.724Z,20.60
2023-04-28T13:10:29.881Z,21.63
2023-04-28T13:12:57.016Z,20.58
2023-04-28T13:15:24.883Z,21.35
2023-04-28T13:17:52.399Z,21.90
2023-04-28T13:20:19.860Z,22.00
2023-04-28T13:22:47.371Z,22.48
2023-04-28T13:25:15.251Z,22.30
2023-04-28T13:27:43.386Z,22.81
2023-04-28T13:30:11.993Z,22.45
2023-04-28T13:32:39.794Z,23.42
2023-04-28T13:35:08.993Z,22.95
2023-04-28T13:37:58.276Z,23.87
2023-04-28T13:40:25.780Z,23.80
2023-04-28T13:42:53.248Z,23.44
2023-04-28T13:45:22.900Z,23.83
2023-04-28T13:47:51.124Z,23.70
2023-04-28T13:50:18.654Z,23.94
2023-04-28T13:52:46.294Z,23.41
2023-04-28T13:55:13.487Z,23.26
2023-04-28T13:57:40.504Z,23.30
2023-04-28T14:02:50.741Z,23.85
2023-04-28T14:05:18.005Z,23.83
2023-04-28T14:07:45.979Z,23.35
2023-04-28T14:10:13.714Z,23.69
2023-04-28T14:12:41.303Z,23.21
2023-04-28T14:15:08.826Z,23.68
2023-04-28T14:17:36.772Z,24.01
2023-04-28T14:20:04.610Z,24.04
2023-04-28T14:22:32.241Z,24.01
2023-04-28T14:24:59.566Z,23.87
2023-04-28T14:27:30.438Z,24.21
2023-04-28T14:30:01.035Z,23.63
2023-04-28T14:32:28.642Z,23.35
2023-04-28T14:34:56.047Z,23.62
2023-04-28T14:37:23.897Z,23.93
2023-04-28T14:39:51.132Z,23.75
2023-04-28T14:42:20.061Z,23.64
2023-04-28T14:44:47.879Z,23.19
2023-04-28T14:47:15.775Z,22.54
2023-04-28T14:49:42.988Z,22.89
2023-04-28T14:52:10.682Z,22.32
2023-04-28T14:54:37.850Z,22.81
2023-04-28T14:57:04.947Z,22.44
2023-04-28T14:59:31.969Z,23.49
2023-04-28T15:01:59.469Z,24.04
2023-04-28T15:04:29.293Z,24.00
2023-04-28T15:06:57.199Z,23.53
2023-04-28T15:09:24.849Z,23.23
2023-04-28T15:11:52.391Z,23.13
2023-04-28T15:14:19.818Z,22.47
2023-04-28T15:16:47.950Z,25.25
2023-04-28T15:19:15.550Z,25.99
2023-04-28T15:21:43.301Z,27.51
2023-04-28T15:24:10.940Z,27.56
2023-04-28T15:26:38.216Z,27.26
2023-04-28T15:29:06.479Z,27.40
2023-04-28T15:31:34.484Z,26.51
2023-04-28T15:34:01.752Z,26.40
2023-04-28T15:36:29.240Z,27.35
2023-04-28T15:38:56.661Z,27.69
2023-04-28T15:41:23.759Z,26.98
2023-04-28T15:43:50.856Z,26.90
2023-04-28T15:46:18.296Z,27.28
2023-04-28T15:48:45.787Z,27.43
2023-04-28T15:51:13.448Z,26.71
2023-04-28T15:53:41.749Z,25.48
2023-04-28T15:56:08.883Z,26.41
2023-04-28T15:58:36.427Z,27.30
2023-04-28T16:01:03.826Z,27.45
2023-04-28T16:03:31.297Z,27.78
2023-04-28T16:05:58.496Z,26.83
2023-04-28T16:08:25.964Z,28.78
2023-04-28T16:10:53.433Z,28.55
2023-04-28T16:13:20.482Z,28.85
2023-04-28T16:15:51.897Z,28.38
2023-04-28T16:18:19.521Z,28.92
2023-04-28T16:20:46.870Z,28.02
2023-04-28T16:23:14.285Z,26.83
2023-04-28T16:25:41.986Z,27.38
2023-04-28T16:28:09.014Z,27.58
2023-04-28T16:30:36.531Z,26.46
2023-04-28T16:33:03.711Z,27.01
2023-04-28T16:35:30.898Z,26.73
2023-04-28T16:37:58.290Z,27.01
2023-04-28T16:40:25.540Z,26.64
2023-04-28T16:42:52.523Z,27.36
2023-04-28T16:45:20.582Z,-144.84
2023-04-28T16:47:48.004Z,-144.84
2023-04-28T16:50:15.605Z,-144.84
2023-04-28T16:52:42.783Z,-144.84
2023-04-28T16:55:10.655Z,-144.84
2023-04-28T16:57:37.803Z,-144.84
2023-04-28T17:00:06.270Z,-144.84
2023-04-28T17:02:34.571Z,-144.84
2023-04-28T17:05:02.112Z,-144.84
2023-04-28T17:07:29.539Z,-144.84
2023-04-28T17:09:56.604Z,-144.84
2023-04-28T17:12:24.114Z,-144.84
2023-04-28T17:14:51.184Z,-144.84
2023-04-28T17:17:18.719Z,-144.84
2023-04-28T17:19:45.850Z,-144.84
2023-04-28T17:22:13.420Z,-144.84
2023-04-28T17:24:40.865Z,-144.84
2023-04-28T17:27:09.456Z,-144.84
2023-04-28T17:29:36.859Z,-144.84
2023-04-28T17:32:04.103Z,-144.84
2023-04-28T17:34:31.630Z,-144.84
2023-04-28T17:36:59.225Z,-144.84
2023-04-28T17:39:26.772Z,-144.84
2023-04-28T17:41:54.141Z,-144.84
2023-04-28T17:44:21.768Z,-144.84
2023-04-28T17:46:48.856Z,-144.84
2023-04-28T17:49:16.372Z,-144.84
2023-04-28T17:51:43.749Z,-144.84
2023-04-28T17:54:10.777Z,-144.84
2023-04-28T17:56:39.195Z,-144.84
2023-04-28T17:59:08.239Z,-144.84
2023-04-28T18:01:36.086Z,-144.84
2023-04-28T18:04:04.117Z,-144.84
2023-04-28T18:06:31.636Z,-144.84
2023-04-28T18:08:58.691Z,-144.84
2023-04-28T18:11:29.017Z,-144.84
2023-04-28T18:13:58.559Z,-144.84
2023-04-28T18:16:26.512Z,-144.84
2023-04-28T18:18:54.144Z,-144.84
2023-04-28T18:21:21.841Z,-144.84
2023-04-28T18:23:49.239Z,-144.84
2023-04-28T18:26:16.641Z,-144.84
2023-04-28T18:28:48.170Z,-144.84
2023-04-28T18:31:16.237Z,-144.84
2023-04-28T18:33:43.328Z,-144.84
2023-04-28T18:36:10.773Z,-144.84
2023-04-28T18:38:38.154Z,-144.84
2023-04-28T18:41:18.480Z,-144.84
2023-04-28T18:43:45.958Z,-144.84
2023-04-28T18:46:13.701Z,-144.84
2023-04-28T18:48:41.313Z,-144.84
2023-04-28T18:51:08.710Z,-144.84
2023-04-28T18:53:36.646Z,-144.84
2023-04-28T18:56:04.212Z,-144.84
2023-04-28T18:58:31.817Z,-144.84
2023-04-28T19:00:59.241Z,-144.84
2023-04-28T19:03:27.167Z,-144.84
2023-04-28T19:05:54.696Z,-144.84
2023-04-28T19:08:22.211Z,-144.84
2023-04-28T19:10:52.153Z,-144.84
2023-04-28T19:13:19.270Z,-144.84
2023-04-28T19:15:46.798Z,-144.84
2023-04-28T19:18:13.824Z,-144.84
2023-04-28T19:20:42.376Z,-144.84
2023-04-28T19:23:09.823Z,-144.84
2023-04-28T19:25:37.368Z,-144.84
2023-04-28T19:28:05.187Z,-144.84
2023-04-28T19:30:32.761Z,-144.84
2023-04-28T19:33:00.580Z,-144.84
2023-04-28T19:35:28.119Z,-144.84
2023-04-28T19:37:56.047Z,-144.84
2023-04-28T19:40:23.132Z,-144.84
2023-04-28T19:42:50.230Z,-144.84
2023-04-28T19:45:17.662Z,-144.84
2023-04-28T19:47:44.856Z,-144.84
2023-04-28T19:50:12.459Z,-144.84
2023-04-28T19:52:39.804Z,-144.84
2023-04-28T19:55:08.114Z,-144.84
2023-04-28T19:57:35.145Z,-144.84
2023-04-28T20:00:02.682Z,-144.84
2023-04-28T20:02:35.063Z,-144.84
2023-04-28T20:05:02.449Z,-144.84
2023-04-28T20:07:29.900Z,-144.84
2023-04-28T20:09:58.320Z,-144.84
2023-04-28T20:12:25.827Z,-144.84
2023-04-28T20:14:53.379Z,-144.84
2023-04-28T20:17:20.802Z,-144.84
2023-04-28T20:19:47.927Z,-144.84
2023-04-28T20:22:15.018Z,-144.84
2023-04-28T20:24:42.431Z,-144.84
2023-04-28T20:27:11.273Z,-144.84
2023-04-28T20:29:38.546Z,-144.84
2023-04-28T20:32:06.331Z,-144.84
2023-04-28T20:34:34.059Z,-144.84
2023-04-28T20:37:06.487Z,-144.84
2023-04-28T20:39:33.652Z,-144.84
2023-04-28T20:42:02.027Z,-144.84
2023-04-28T20:44:29.147Z,-144.84
2023-04-28T20:46:56.202Z,-144.84
2023-04-28T20:49:24.576Z,-144.84
2023-04-28T20:51:52.055Z,-144.84
2023-04-28T20:54:19.572Z,-144.84
2023-04-28T20:56:46.575Z,-144.84
2023-04-28T21:01:40.958Z,23.02
2023-04-28T21:04:08.698Z,22.98
2023-04-28T21:06:36.624Z,22.97
2023-04-28T21:09:03.889Z,23.47
2023-04-28T21:11:30.963Z,23.60
2023-04-28T21:13:58.660Z,23.35
2023-04-28T21:16:26.093Z,23.36
2023-04-28T21:18:54.486Z,23.34
2023-04-28T21:21:21.481Z,23.04
2023-04-28T21:23:48.565Z,23.02
2023-04-28T21:26:15.575Z,23.09
2023-04-28T21:28:45.237Z,23.41
2023-04-28T21:31:14.751Z,23.44
2023-04-28T21:33:41.693Z,23.31
2023-04-28T21:36:10.367Z,23.37
2023-04-28T21:38:38.930Z,23.03
2023-04-28T21:41:07.503Z,22.98
2023-04-28T21:43:35.028Z,23.06
2023-04-28T21:46:04.967Z,22.88
2023-04-28T21:48:32.171Z,22.98
2023-04-28T21:51:00.030Z,23.06
2023-04-28T21:53:28.619Z,23.03
2023-04-28T21:55:56.033Z,23.23
2023-04-28T21:58:23.125Z,23.22
2023-04-28T22:00:51.273Z,22.89
2023-04-28T22:03:18.746Z,23.02
2023-04-28T22:05:46.009Z,22.58
2023-04-28T22:08:13.651Z,22.98
2023-04-28T22:10:41.295Z,22.64
2023-04-28T22:13:09.191Z,22.56
2023-04-28T22:15:36.233Z,22.70
2023-04-28T22:18:03.360Z,22.52
2023-04-28T22:20:30.740Z,22.82
2023-04-28T22:22:57.842Z,22.56
2023-04-28T22:25:25.089Z,22.58
2023-04-28T22:27:52.058Z,22.68
2023-04-28T22:30:19.514Z,22.37
2023-04-28T22:32:47.724Z,22.73
2023-04-28T22:35:16.776Z,22.72
2023-04-28T22:37:44.458Z,22.47
2023-04-28T22:40:11.869Z,22.83
2023-04-28T22:42:40.923Z,22.80
2023-04-28T22:45:10.174Z,22.78
2023-04-28T22:47:39.088Z,22.92
2023-04-28T22:50:10.488Z,23.02
2023-04-28T22:52:37.982Z,22.84
2023-04-28T22:55:06.564Z,22.75
2023-04-28T22:57:33.705Z,22.79
2023-04-28T23:00:00.704Z,22.63
2023-04-28T23:02:28.704Z,22.60
2023-04-28T23:04:58.345Z,22.58
2023-04-28T23:07:25.518Z,22.57
2023-04-28T23:09:52.700Z,22.60
2023-04-28T23:12:20.055Z,22.52
2023-04-28T23:14:47.121Z,22.46
2023-04-28T23:17:14.177Z,22.50
2023-04-28T23:19:41.413Z,22.45
2023-04-28T23:22:09.282Z,22.66
2023-04-28T23:24:37.177Z,22.57
2023-04-28T23:27:04.603Z,22.54
2023-04-28T23:29:32.035Z,22.30
2023-04-28T23:31:59.441Z,22.24
2023-04-28T23:34:26.750Z,21.98
2023-04-28T23:36:53.873Z,22.22
2023-04-28T23:39:20.948Z,22.37
2023-04-28T23:41:47.973Z,22.33
2023-04-28T23:44:14.938Z,22.35
2023-04-28T23:46:41.887Z,22.19
2023-04-28T23:49:09.062Z,22.22
2023-04-28T23:51:36.089Z,22.13
2023-04-28T23:54:03.665Z,22.33
2023-04-28T23:56:31.617Z,22.17
2023-04-28T23:58:58.652Z,22.06
